sensor_id;sensor_type;location;lat;lon;timestamp;P1;durP1;ratioP1;P2;durP2;ratioP2
39918;SDS011;25589;51.552;13.424;2022-11-15T00:01:49;40.25;;;21.77;;
39918;SDS011;25589;51.552;13.424;2022-11-15T00:04:34;38.42;;;22.90;;
39918;SDS011;25589;51.552;13.424;2022-11-15T00:07:18;37.15;;;20.85;;
39918;SDS011;25589;51.552;13.424;2022-11-15T00:10:02;36.47;;;21.30;;
39918;SDS011;25589;51.552;13.424;2022-11-15T00:12:46;37.42;;;21.92;;
39918;SDS011;25589;51.552;13.424;2022-11-15T00:15:31;35.58;;;21.25;;
39918;SDS011;25589;51.552;13.424;2022-11-15T00:18:15;35.85;;;21.25;;
39918;SDS011;25589;51.552;13.424;2022-11-15T00:21:04;32.80;;;20.42;;
39918;SDS011;25589;51.552;13.424;2022-11-15T00:23:50;35.75;;;22.05;;
39918;SDS011;25589;51.552;13.424;2022-11-15T00:26:34;35.78;;;21.00;;
39918;SDS011;25589;51.552;13.424;2022-11-15T00:29:18;35.08;;;21.25;;
39918;SDS011;25589;51.552;13.424;2022-11-15T00:32:02;36.30;;;21.20;;
39918;SDS011;25589;51.552;13.424;2022-11-15T00:34:46;37.28;;;21.25;;
39918;SDS011;25589;51.552;13.424;2022-11-15T00:37:30;33.58;;;20.90;;
39918;SDS011;25589;51.552;13.424;2022-11-15T00:40:14;34.20;;;20.67;;
39918;SDS011;25589;51.552;13.424;2022-11-15T00:42:59;35.78;;;21.15;;
39918;SDS011;25589;51.552;13.424;2022-11-15T00:45:43;37.05;;;21.45;;
39918;SDS011;25589;51.552;13.424;2022-11-15T00:48:28;36.03;;;20.98;;
39918;SDS011;25589;51.552;13.424;2022-11-15T00:51:12;33.90;;;21.52;;
39918;SDS011;25589;51.552;13.424;2022-11-15T00:53:57;33.20;;;21.33;;
39918;SDS011;25589;51.552;13.424;2022-11-15T00:56:41;32.25;;;20.92;;
39918;SDS011;25589;51.552;13.424;2022-11-15T00:59:25;32.95;;;21.10;;
39918;SDS011;25589;51.552;13.424;2022-11-15T01:02:09;31.92;;;20.10;;
39918;SDS011;25589;51.552;13.424;2022-11-15T01:04:53;31.80;;;19.88;;
39918;SDS011;25589;51.552;13.424;2022-11-15T01:07:37;33.55;;;19.95;;
39918;SDS011;25589;51.552;13.424;2022-11-15T01:10:22;32.30;;;19.35;;
39918;SDS011;25589;51.552;13.424;2022-11-15T01:13:06;32.97;;;19.50;;
39918;SDS011;25589;51.552;13.424;2022-11-15T01:15:50;32.40;;;19.90;;
39918;SDS011;25589;51.552;13.424;2022-11-15T01:18:34;32.33;;;20.23;;
39918;SDS011;25589;51.552;13.424;2022-11-15T01:21:19;29.52;;;18.80;;
39918;SDS011;25589;51.552;13.424;2022-11-15T01:24:03;28.52;;;18.60;;
39918;SDS011;25589;51.552;13.424;2022-11-15T01:26:48;29.48;;;17.88;;
39918;SDS011;25589;51.552;13.424;2022-11-15T01:29:32;29.27;;;18.02;;
39918;SDS011;25589;51.552;13.424;2022-11-15T01:32:16;32.00;;;19.58;;
39918;SDS011;25589;51.552;13.424;2022-11-15T01:35:01;31.02;;;18.48;;
39918;SDS011;25589;51.552;13.424;2022-11-15T01:37:45;32.58;;;20.10;;
39918;SDS011;25589;51.552;13.424;2022-11-15T01:40:29;34.45;;;19.00;;
39918;SDS011;25589;51.552;13.424;2022-11-15T01:43:23;29.48;;;17.13;;
39918;SDS011;25589;51.552;13.424;2022-11-15T01:49:14;27.38;;;18.65;;
39918;SDS011;25589;51.552;13.424;2022-11-15T01:52:03;31.73;;;18.17;;
39918;SDS011;25589;51.552;13.424;2022-11-15T01:54:50;30.17;;;18.00;;
39918;SDS011;25589;51.552;13.424;2022-11-15T01:57:58;27.10;;;16.45;;
39918;SDS011;25589;51.552;13.424;2022-11-15T02:00:45;26.98;;;17.40;;
39918;SDS011;25589;51.552;13.424;2022-11-15T02:03:36;30.27;;;18.67;;
39918;SDS011;25589;51.552;13.424;2022-11-15T02:06:27;27.92;;;17.67;;
39918;SDS011;25589;51.552;13.424;2022-11-15T02:09:11;30.42;;;19.13;;
39918;SDS011;25589;51.552;13.424;2022-11-15T02:11:56;27.77;;;16.98;;
39918;SDS011;25589;51.552;13.424;2022-11-15T02:14:43;30.00;;;17.80;;
39918;SDS011;25589;51.552;13.424;2022-11-15T02:17:33;33.78;;;21.50;;
39918;SDS011;25589;51.552;13.424;2022-11-15T02:23:52;40.13;;;23.42;;
39918;SDS011;25589;51.552;13.424;2022-11-15T02:26:50;29.77;;;20.13;;
39918;SDS011;25589;51.552;13.424;2022-11-15T02:33:07;36.17;;;20.25;;
39918;SDS011;25589;51.552;13.424;2022-11-15T02:36:15;33.10;;;20.40;;
39918;SDS011;25589;51.552;13.424;2022-11-15T02:39:15;31.17;;;19.27;;
39918;SDS011;25589;51.552;13.424;2022-11-15T02:42:08;30.35;;;18.65;;
39918;SDS011;25589;51.552;13.424;2022-11-15T02:45:19;33.25;;;20.17;;
39918;SDS011;25589;51.552;13.424;2022-11-15T02:48:07;38.30;;;22.58;;
39918;SDS011;25589;51.552;13.424;2022-11-15T02:50:52;30.70;;;19.40;;
39918;SDS011;25589;51.552;13.424;2022-11-15T02:53:37;33.28;;;19.23;;
39918;SDS011;25589;51.552;13.424;2022-11-15T02:56:21;30.63;;;18.95;;
39918;SDS011;25589;51.552;13.424;2022-11-15T02:59:29;29.65;;;18.80;;
39918;SDS011;25589;51.552;13.424;2022-11-15T03:02:29;31.92;;;17.65;;
39918;SDS011;25589;51.552;13.424;2022-11-15T03:05:23;32.47;;;19.40;;
39918;SDS011;25589;51.552;13.424;2022-11-15T03:08:32;32.20;;;19.42;;
39918;SDS011;25589;51.552;13.424;2022-11-15T03:11:19;35.97;;;20.00;;
39918;SDS011;25589;51.552;13.424;2022-11-15T03:17:02;34.17;;;20.40;;
39918;SDS011;25589;51.552;13.424;2022-11-15T03:20:00;35.08;;;20.90;;
39918;SDS011;25589;51.552;13.424;2022-11-15T03:22:47;37.65;;;21.25;;
39918;SDS011;25589;51.552;13.424;2022-11-15T03:25:33;34.17;;;20.25;;
39918;SDS011;25589;51.552;13.424;2022-11-15T03:28:24;32.38;;;19.90;;
39918;SDS011;25589;51.552;13.424;2022-11-15T03:31:17;32.72;;;19.88;;
39918;SDS011;25589;51.552;13.424;2022-11-15T03:34:41;38.20;;;22.15;;
39918;SDS011;25589;51.552;13.424;2022-11-15T03:37:36;37.72;;;20.98;;
39918;SDS011;25589;51.552;13.424;2022-11-15T03:40:28;36.72;;;21.23;;
39918;SDS011;25589;51.552;13.424;2022-11-15T03:43:32;31.48;;;19.42;;
39918;SDS011;25589;51.552;13.424;2022-11-15T03:46:36;34.85;;;20.45;;
39918;SDS011;25589;51.552;13.424;2022-11-15T03:49:27;35.38;;;21.40;;
39918;SDS011;25589;51.552;13.424;2022-11-15T03:52:20;33.13;;;19.65;;
39918;SDS011;25589;51.552;13.424;2022-11-15T03:55:06;34.03;;;19.95;;
39918;SDS011;25589;51.552;13.424;2022-11-15T03:57:54;35.72;;;20.45;;
39918;SDS011;25589;51.552;13.424;2022-11-15T04:00:40;35.30;;;20.67;;
39918;SDS011;25589;51.552;13.424;2022-11-15T04:03:25;33.72;;;20.23;;
39918;SDS011;25589;51.552;13.424;2022-11-15T04:06:09;33.28;;;19.50;;
39918;SDS011;25589;51.552;13.424;2022-11-15T04:08:53;33.08;;;20.30;;
39918;SDS011;25589;51.552;13.424;2022-11-15T04:11:37;35.35;;;21.35;;
39918;SDS011;25589;51.552;13.424;2022-11-15T04:14:21;35.83;;;20.38;;
39918;SDS011;25589;51.552;13.424;2022-11-15T04:17:05;36.42;;;20.92;;
39918;SDS011;25589;51.552;13.424;2022-11-15T04:19:49;36.20;;;21.10;;
39918;SDS011;25589;51.552;13.424;2022-11-15T04:22:53;35.10;;;20.92;;
39918;SDS011;25589;51.552;13.424;2022-11-15T04:26:00;33.88;;;19.70;;
39918;SDS011;25589;51.552;13.424;2022-11-15T04:28:46;35.13;;;20.33;;
39918;SDS011;25589;51.552;13.424;2022-11-15T04:31:48;33.47;;;19.98;;
39918;SDS011;25589;51.552;13.424;2022-11-15T04:34:32;34.00;;;20.45;;
39918;SDS011;25589;51.552;13.424;2022-11-15T04:37:17;34.67;;;21.15;;
39918;SDS011;25589;51.552;13.424;2022-11-15T04:40:02;37.15;;;20.65;;
39918;SDS011;25589;51.552;13.424;2022-11-15T04:42:46;33.50;;;20.42;;
39918;SDS011;25589;51.552;13.424;2022-11-15T04:45:30;32.22;;;19.52;;
39918;SDS011;25589;51.552;13.424;2022-11-15T04:48:14;32.80;;;20.35;;
39918;SDS011;25589;51.552;13.424;2022-11-15T04:50:58;34.22;;;20.92;;
39918;SDS011;25589;51.552;13.424;2022-11-15T04:53:42;36.25;;;20.50;;
39918;SDS011;25589;51.552;13.424;2022-11-15T04:56:26;33.75;;;20.63;;
39918;SDS011;25589;51.552;13.424;2022-11-15T04:59:10;39.90;;;20.85;;
39918;SDS011;25589;51.552;13.424;2022-11-15T05:01:54;52.03;;;33.00;;
39918;SDS011;25589;51.552;13.424;2022-11-15T05:04:38;44.25;;;27.45;;
39918;SDS011;25589;51.552;13.424;2022-11-15T05:07:22;46.47;;;30.00;;
39918;SDS011;25589;51.552;13.424;2022-11-15T05:10:06;72.13;;;49.40;;
39918;SDS011;25589;51.552;13.424;2022-11-15T05:12:50;97.85;;;64.38;;
39918;SDS011;25589;51.552;13.424;2022-11-15T05:15:34;102.60;;;62.72;;
39918;SDS011;25589;51.552;13.424;2022-11-15T05:18:18;50.90;;;32.47;;
39918;SDS011;25589;51.552;13.424;2022-11-15T05:21:03;40.28;;;23.73;;
39918;SDS011;25589;51.552;13.424;2022-11-15T05:23:51;39.45;;;24.90;;
39918;SDS011;25589;51.552;13.424;2022-11-15T05:26:35;42.92;;;26.35;;
39918;SDS011;25589;51.552;13.424;2022-11-15T05:29:19;35.53;;;20.35;;
39918;SDS011;25589;51.552;13.424;2022-11-15T05:32:03;33.25;;;19.95;;
39918;SDS011;25589;51.552;13.424;2022-11-15T05:34:49;42.55;;;24.38;;
39918;SDS011;25589;51.552;13.424;2022-11-15T05:37:34;36.20;;;19.25;;
39918;SDS011;25589;51.552;13.424;2022-11-15T05:40:18;36.83;;;20.20;;
39918;SDS011;25589;51.552;13.424;2022-11-15T05:43:02;35.47;;;19.42;;
39918;SDS011;25589;51.552;13.424;2022-11-15T05:45:48;35.72;;;20.95;;
39918;SDS011;25589;51.552;13.424;2022-11-15T05:48:33;36.90;;;20.83;;
39918;SDS011;25589;51.552;13.424;2022-11-15T05:51:19;35.75;;;19.85;;
39918;SDS011;25589;51.552;13.424;2022-11-15T05:54:05;36.63;;;19.95;;
39918;SDS011;25589;51.552;13.424;2022-11-15T05:56:49;34.45;;;19.80;;
39918;SDS011;25589;51.552;13.424;2022-11-15T05:59:33;35.38;;;20.45;;
39918;SDS011;25589;51.552;13.424;2022-11-15T06:02:19;31.95;;;19.08;;
39918;SDS011;25589;51.552;13.424;2022-11-15T06:05:03;39.80;;;21.35;;
39918;SDS011;25589;51.552;13.424;2022-11-15T06:07:47;33.83;;;20.25;;
39918;SDS011;25589;51.552;13.424;2022-11-15T06:10:32;35.25;;;21.05;;
39918;SDS011;25589;51.552;13.424;2022-11-15T06:13:16;32.90;;;19.83;;
39918;SDS011;25589;51.552;13.424;2022-11-15T06:16:00;34.50;;;20.40;;
39918;SDS011;25589;51.552;13.424;2022-11-15T06:18:45;41.13;;;21.75;;
39918;SDS011;25589;51.552;13.424;2022-11-15T06:21:29;37.17;;;19.55;;
39918;SDS011;25589;51.552;13.424;2022-11-15T06:24:13;32.75;;;19.23;;
39918;SDS011;25589;51.552;13.424;2022-11-15T06:26:57;35.42;;;18.83;;
39918;SDS011;25589;51.552;13.424;2022-11-15T06:29:41;27.27;;;16.52;;
39918;SDS011;25589;51.552;13.424;2022-11-15T06:32:25;32.10;;;18.92;;
39918;SDS011;25589;51.552;13.424;2022-11-15T06:35:09;34.58;;;19.20;;
39918;SDS011;25589;51.552;13.424;2022-11-15T06:37:53;35.05;;;19.63;;
39918;SDS011;25589;51.552;13.424;2022-11-15T06:40:38;36.63;;;20.73;;
39918;SDS011;25589;51.552;13.424;2022-11-15T06:43:23;37.95;;;21.08;;
39918;SDS011;25589;51.552;13.424;2022-11-15T06:46:07;36.28;;;19.38;;
39918;SDS011;25589;51.552;13.424;2022-11-15T06:48:52;39.03;;;21.45;;
39918;SDS011;25589;51.552;13.424;2022-11-15T06:51:36;36.25;;;20.40;;
39918;SDS011;25589;51.552;13.424;2022-11-15T06:54:20;37.85;;;19.80;;
39918;SDS011;25589;51.552;13.424;2022-11-15T06:57:04;37.40;;;20.65;;
39918;SDS011;25589;51.552;13.424;2022-11-15T06:59:48;36.83;;;21.15;;
39918;SDS011;25589;51.552;13.424;2022-11-15T07:02:33;37.72;;;19.90;;
39918;SDS011;25589;51.552;13.424;2022-11-15T07:05:17;39.08;;;21.08;;
39918;SDS011;25589;51.552;13.424;2022-11-15T07:08:01;31.90;;;18.38;;
39918;SDS011;25589;51.552;13.424;2022-11-15T07:10:45;34.83;;;18.98;;
39918;SDS011;25589;51.552;13.424;2022-11-15T07:13:30;34.78;;;20.27;;
39918;SDS011;25589;51.552;13.424;2022-11-15T07:16:17;35.92;;;20.13;;
39918;SDS011;25589;51.552;13.424;2022-11-15T07:19:01;34.20;;;19.75;;
39918;SDS011;25589;51.552;13.424;2022-11-15T07:21:45;34.33;;;19.02;;
39918;SDS011;25589;51.552;13.424;2022-11-15T07:24:29;35.20;;;19.60;;
39918;SDS011;25589;51.552;13.424;2022-11-15T07:27:13;36.13;;;20.15;;
39918;SDS011;25589;51.552;13.424;2022-11-15T07:29:57;35.60;;;18.85;;
39918;SDS011;25589;51.552;13.424;2022-11-15T07:32:41;30.95;;;18.33;;
39918;SDS011;25589;51.552;13.424;2022-11-15T07:35:25;35.15;;;18.73;;
39918;SDS011;25589;51.552;13.424;2022-11-15T07:38:10;32.88;;;18.35;;
39918;SDS011;25589;51.552;13.424;2022-11-15T07:40:55;31.58;;;17.98;;
39918;SDS011;25589;51.552;13.424;2022-11-15T07:43:44;35.47;;;19.55;;
39918;SDS011;25589;51.552;13.424;2022-11-15T07:46:28;36.60;;;22.45;;
39918;SDS011;25589;51.552;13.424;2022-11-15T07:49:12;35.38;;;18.88;;
39918;SDS011;25589;51.552;13.424;2022-11-15T07:51:56;36.50;;;23.75;;
39918;SDS011;25589;51.552;13.424;2022-11-15T07:54:40;33.53;;;19.73;;
39918;SDS011;25589;51.552;13.424;2022-11-15T07:57:24;33.47;;;18.40;;
39918;SDS011;25589;51.552;13.424;2022-11-15T08:00:08;36.20;;;19.52;;
39918;SDS011;25589;51.552;13.424;2022-11-15T08:03:00;38.72;;;22.25;;
39918;SDS011;25589;51.552;13.424;2022-11-15T08:05:49;33.22;;;21.15;;
39918;SDS011;25589;51.552;13.424;2022-11-15T08:08:34;34.80;;;19.10;;
39918;SDS011;25589;51.552;13.424;2022-11-15T08:11:18;32.53;;;18.58;;
39918;SDS011;25589;51.552;13.424;2022-11-15T08:14:02;30.75;;;17.92;;
39918;SDS011;25589;51.552;13.424;2022-11-15T08:16:47;29.02;;;17.38;;
39918;SDS011;25589;51.552;13.424;2022-11-15T08:19:31;30.52;;;17.30;;
39918;SDS011;25589;51.552;13.424;2022-11-15T08:22:15;27.17;;;16.55;;
39918;SDS011;25589;51.552;13.424;2022-11-15T08:25:00;29.55;;;17.75;;
39918;SDS011;25589;51.552;13.424;2022-11-15T08:27:44;31.10;;;17.63;;
39918;SDS011;25589;51.552;13.424;2022-11-15T08:30:28;29.15;;;16.65;;
39918;SDS011;25589;51.552;13.424;2022-11-15T08:33:13;27.90;;;16.85;;
39918;SDS011;25589;51.552;13.424;2022-11-15T08:35:58;26.65;;;16.77;;
39918;SDS011;25589;51.552;13.424;2022-11-15T08:38:43;27.45;;;17.42;;
39918;SDS011;25589;51.552;13.424;2022-11-15T08:41:29;27.00;;;17.30;;
39918;SDS011;25589;51.552;13.424;2022-11-15T08:44:22;27.42;;;15.68;;
39918;SDS011;25589;51.552;13.424;2022-11-15T08:47:08;27.48;;;16.20;;
39918;SDS011;25589;51.552;13.424;2022-11-15T08:49:55;26.42;;;15.68;;
39918;SDS011;25589;51.552;13.424;2022-11-15T08:52:39;25.63;;;14.88;;
39918;SDS011;25589;51.552;13.424;2022-11-15T08:55:24;28.67;;;15.68;;
39918;SDS011;25589;51.552;13.424;2022-11-15T08:58:08;25.77;;;14.60;;
39918;SDS011;25589;51.552;13.424;2022-11-15T09:00:52;26.45;;;14.52;;
39918;SDS011;25589;51.552;13.424;2022-11-15T09:03:36;23.88;;;14.90;;
39918;SDS011;25589;51.552;13.424;2022-11-15T09:06:22;24.77;;;15.30;;
39918;SDS011;25589;51.552;13.424;2022-11-15T09:09:08;24.33;;;15.52;;
39918;SDS011;25589;51.552;13.424;2022-11-15T09:11:52;25.55;;;16.20;;
39918;SDS011;25589;51.552;13.424;2022-11-15T09:14:36;27.00;;;16.67;;
39918;SDS011;25589;51.552;13.424;2022-11-15T09:17:20;22.48;;;13.80;;
39918;SDS011;25589;51.552;13.424;2022-11-15T09:20:04;21.25;;;12.70;;
39918;SDS011;25589;51.552;13.424;2022-11-15T09:22:49;23.92;;;13.77;;
39918;SDS011;25589;51.552;13.424;2022-11-15T09:25:33;22.23;;;13.18;;
39918;SDS011;25589;51.552;13.424;2022-11-15T09:28:17;22.30;;;14.65;;
39918;SDS011;25589;51.552;13.424;2022-11-15T09:31:03;19.33;;;12.10;;
39918;SDS011;25589;51.552;13.424;2022-11-15T09:33:49;19.02;;;12.77;;
39918;SDS011;25589;51.552;13.424;2022-11-15T09:36:32;21.75;;;13.30;;
39918;SDS011;25589;51.552;13.424;2022-11-15T09:39:17;18.02;;;12.32;;
39918;SDS011;25589;51.552;13.424;2022-11-15T09:51:41;21.27;;;12.60;;
39918;SDS011;25589;51.552;13.424;2022-11-15T09:54:18;19.15;;;12.32;;
39918;SDS011;25589;51.552;13.424;2022-11-15T09:56:58;18.30;;;11.50;;
39918;SDS011;25589;51.552;13.424;2022-11-15T09:59:40;23.83;;;14.13;;
39918;SDS011;25589;51.552;13.424;2022-11-15T10:02:34;17.92;;;11.98;;
39918;SDS011;25589;51.552;13.424;2022-11-15T10:05:02;21.58;;;11.85;;
39918;SDS011;25589;51.552;13.424;2022-11-15T10:07:34;21.73;;;11.63;;
39918;SDS011;25589;51.552;13.424;2022-11-15T10:10:09;18.70;;;11.48;;
39918;SDS011;25589;51.552;13.424;2022-11-15T10:12:50;19.00;;;12.40;;
39918;SDS011;25589;51.552;13.424;2022-11-15T10:15:18;18.83;;;11.45;;
39918;SDS011;25589;51.552;13.424;2022-11-15T10:17:53;19.08;;;11.95;;
39918;SDS011;25589;51.552;13.424;2022-11-15T10:20:22;21.42;;;12.60;;
39918;SDS011;25589;51.552;13.424;2022-11-15T10:22:53;19.27;;;10.95;;
39918;SDS011;25589;51.552;13.424;2022-11-15T10:25:27;20.23;;;11.93;;
39918;SDS011;25589;51.552;13.424;2022-11-15T10:28:36;19.15;;;11.88;;
39918;SDS011;25589;51.552;13.424;2022-11-15T10:30:46;17.40;;;10.52;;
39918;SDS011;25589;51.552;13.424;2022-11-15T10:33:17;16.63;;;11.48;;
39918;SDS011;25589;51.552;13.424;2022-11-15T10:46:36;15.27;;;10.35;;
39918;SDS011;25589;51.552;13.424;2022-11-15T10:49:13;21.50;;;11.65;;
39918;SDS011;25589;51.552;13.424;2022-11-15T10:51:40;19.27;;;11.48;;
39918;SDS011;25589;51.552;13.424;2022-11-15T10:54:10;15.15;;;9.90;;
39918;SDS011;25589;51.552;13.424;2022-11-15T10:56:38;15.95;;;10.80;;
39918;SDS011;25589;51.552;13.424;2022-11-15T10:59:12;21.52;;;10.60;;
39918;SDS011;25589;51.552;13.424;2022-11-15T11:01:47;18.33;;;10.82;;
39918;SDS011;25589;51.552;13.424;2022-11-15T11:04:13;15.80;;;10.20;;
39918;SDS011;25589;51.552;13.424;2022-11-15T11:06:52;16.27;;;10.13;;
39918;SDS011;25589;51.552;13.424;2022-11-15T11:09:27;17.02;;;10.57;;
39918;SDS011;25589;51.552;13.424;2022-11-15T11:11:57;16.98;;;9.85;;
39918;SDS011;25589;51.552;13.424;2022-11-15T11:16:59;14.73;;;9.68;;
39918;SDS011;25589;51.552;13.424;2022-11-15T11:19:39;17.23;;;10.48;;
39918;SDS011;25589;51.552;13.424;2022-11-15T11:25:05;30.58;;;18.92;;
39918;SDS011;25589;51.552;13.424;2022-11-15T11:28:05;18.63;;;11.43;;
39918;SDS011;25589;51.552;13.424;2022-11-15T11:30:54;15.90;;;10.43;;
39918;SDS011;25589;51.552;13.424;2022-11-15T11:33:46;13.38;;;9.50;;
39918;SDS011;25589;51.552;13.424;2022-11-15T11:36:56;19.48;;;9.98;;
39918;SDS011;25589;51.552;13.424;2022-11-15T11:50:39;20.67;;;14.02;;
39918;SDS011;25589;51.552;13.424;2022-11-15T11:53:12;13.85;;;8.70;;
39918;SDS011;25589;51.552;13.424;2022-11-15T11:55:45;11.70;;;7.80;;
39918;SDS011;25589;51.552;13.424;2022-11-15T11:58:19;16.42;;;9.73;;
39918;SDS011;25589;51.552;13.424;2022-11-15T12:00:52;20.83;;;14.02;;
39918;SDS011;25589;51.552;13.424;2022-11-15T12:03:34;14.18;;;8.77;;
39918;SDS011;25589;51.552;13.424;2022-11-15T12:06:19;14.25;;;9.32;;
39918;SDS011;25589;51.552;13.424;2022-11-15T12:14:38;16.58;;;8.85;;
39918;SDS011;25589;51.552;13.424;2022-11-15T12:17:21;11.30;;;8.38;;
39918;SDS011;25589;51.552;13.424;2022-11-15T12:19:49;11.57;;;7.47;;
39918;SDS011;25589;51.552;13.424;2022-11-15T12:22:19;13.95;;;9.02;;
39918;SDS011;25589;51.552;13.424;2022-11-15T12:25:00;13.05;;;8.32;;
39918;SDS011;25589;51.552;13.424;2022-11-15T12:27:39;10.70;;;8.10;;
39918;SDS011;25589;51.552;13.424;2022-11-15T12:30:11;10.98;;;7.93;;
39918;SDS011;25589;51.552;13.424;2022-11-15T12:32:48;12.02;;;8.18;;
39918;SDS011;25589;51.552;13.424;2022-11-15T12:35:35;10.32;;;7.68;;
39918;SDS011;25589;51.552;13.424;2022-11-15T12:38:05;12.25;;;7.88;;
39918;SDS011;25589;51.552;13.424;2022-11-15T12:40:39;12.10;;;7.50;;
39918;SDS011;25589;51.552;13.424;2022-11-15T12:46:05;10.00;;;6.50;;
39918;SDS011;25589;51.552;13.424;2022-11-15T12:51:03;12.70;;;6.80;;
39918;SDS011;25589;51.552;13.424;2022-11-15T12:53:30;11.05;;;7.30;;
39918;SDS011;25589;51.552;13.424;2022-11-15T12:58:44;9.53;;;5.83;;
39918;SDS011;25589;51.552;13.424;2022-11-15T13:04:08;9.73;;;6.90;;
39918;SDS011;25589;51.552;13.424;2022-11-15T13:15:00;12.02;;;7.03;;
39918;SDS011;25589;51.552;13.424;2022-11-15T13:17:27;9.02;;;6.80;;
39918;SDS011;25589;51.552;13.424;2022-11-15T13:20:08;14.75;;;9.50;;
39918;SDS011;25589;51.552;13.424;2022-11-15T13:28:24;9.48;;;7.35;;
39918;SDS011;25589;51.552;13.424;2022-11-15T13:30:57;10.93;;;7.65;;
39918;SDS011;25589;51.552;13.424;2022-11-15T13:36:08;11.32;;;7.18;;
39918;SDS011;25589;51.552;13.424;2022-11-15T13:38:39;10.23;;;7.20;;
39918;SDS011;25589;51.552;13.424;2022-11-15T13:41:16;8.52;;;5.90;;
39918;SDS011;25589;51.552;13.424;2022-11-15T13:43:47;10.25;;;6.43;;
39918;SDS011;25589;51.552;13.424;2022-11-15T13:46:24;8.55;;;6.82;;
39918;SDS011;25589;51.552;13.424;2022-11-15T13:48:59;10.15;;;7.22;;
39918;SDS011;25589;51.552;13.424;2022-11-15T13:57:09;15.23;;;8.07;;
39918;SDS011;25589;51.552;13.424;2022-11-15T13:59:45;10.27;;;7.53;;
39918;SDS011;25589;51.552;13.424;2022-11-15T14:02:18;11.65;;;7.50;;
39918;SDS011;25589;51.552;13.424;2022-11-15T14:04:48;9.82;;;6.63;;
39918;SDS011;25589;51.552;13.424;2022-11-15T14:07:17;10.90;;;7.25;;
39918;SDS011;25589;51.552;13.424;2022-11-15T14:09:45;11.73;;;7.80;;
39918;SDS011;25589;51.552;13.424;2022-11-15T14:15:00;13.10;;;8.05;;
39918;SDS011;25589;51.552;13.424;2022-11-15T14:17:43;10.00;;;6.63;;
39918;SDS011;25589;51.552;13.424;2022-11-15T14:22:57;10.82;;;7.43;;
39918;SDS011;25589;51.552;13.424;2022-11-15T14:25:26;10.60;;;6.93;;
39918;SDS011;25589;51.552;13.424;2022-11-15T14:28:15;10.02;;;6.65;;
39918;SDS011;25589;51.552;13.424;2022-11-15T14:30:55;8.43;;;6.32;;
39918;SDS011;25589;51.552;13.424;2022-11-15T14:33:23;10.85;;;7.20;;
39918;SDS011;25589;51.552;13.424;2022-11-15T14:35:55;8.88;;;6.72;;
39918;SDS011;25589;51.552;13.424;2022-11-15T14:38:22;8.40;;;6.47;;
39918;SDS011;25589;51.552;13.424;2022-11-15T14:40:49;11.45;;;7.15;;
39918;SDS011;25589;51.552;13.424;2022-11-15T14:43:15;12.23;;;6.82;;
39918;SDS011;25589;51.552;13.424;2022-11-15T14:45:40;8.85;;;6.90;;
39918;SDS011;25589;51.552;13.424;2022-11-15T14:48:06;8.80;;;5.93;;
39918;SDS011;25589;51.552;13.424;2022-11-15T14:50:32;10.50;;;7.07;;
39918;SDS011;25589;51.552;13.424;2022-11-15T14:52:59;9.57;;;7.10;;
39918;SDS011;25589;51.552;13.424;2022-11-15T14:55:25;10.88;;;7.05;;
39918;SDS011;25589;51.552;13.424;2022-11-15T14:57:54;9.50;;;6.45;;
39918;SDS011;25589;51.552;13.424;2022-11-15T15:00:20;11.40;;;7.00;;
39918;SDS011;25589;51.552;13.424;2022-11-15T15:02:47;9.32;;;6.75;;
39918;SDS011;25589;51.552;13.424;2022-11-15T15:05:17;10.48;;;7.25;;
39918;SDS011;25589;51.552;13.424;2022-11-15T15:07:45;10.90;;;6.45;;
39918;SDS011;25589;51.552;13.424;2022-11-15T15:10:11;10.98;;;7.35;;
39918;SDS011;25589;51.552;13.424;2022-11-15T15:12:37;11.90;;;6.50;;
39918;SDS011;25589;51.552;13.424;2022-11-15T15:15:03;10.18;;;6.80;;
39918;SDS011;25589;51.552;13.424;2022-11-15T15:17:29;11.68;;;7.05;;
39918;SDS011;25589;51.552;13.424;2022-11-15T15:19:55;13.55;;;7.55;;
39918;SDS011;25589;51.552;13.424;2022-11-15T15:22:20;9.73;;;6.35;;
39918;SDS011;25589;51.552;13.424;2022-11-15T15:24:50;10.18;;;7.18;;
39918;SDS011;25589;51.552;13.424;2022-11-15T15:27:16;11.43;;;6.57;;
39918;SDS011;25589;51.552;13.424;2022-11-15T15:29:42;14.88;;;9.82;;
39918;SDS011;25589;51.552;13.424;2022-11-15T15:32:08;13.07;;;7.80;;
39918;SDS011;25589;51.552;13.424;2022-11-15T15:34:35;11.95;;;8.57;;
39918;SDS011;25589;51.552;13.424;2022-11-15T15:37:07;10.57;;;6.93;;
39918;SDS011;25589;51.552;13.424;2022-11-15T15:39:36;17.10;;;11.07;;
39918;SDS011;25589;51.552;13.424;2022-11-15T15:42:01;23.95;;;16.83;;
39918;SDS011;25589;51.552;13.424;2022-11-15T15:44:28;12.88;;;8.38;;
39918;SDS011;25589;51.552;13.424;2022-11-15T15:46:54;18.25;;;13.38;;
39918;SDS011;25589;51.552;13.424;2022-11-15T15:49:19;14.18;;;8.68;;
39918;SDS011;25589;51.552;13.424;2022-11-15T15:51:45;13.45;;;8.00;;
39918;SDS011;25589;51.552;13.424;2022-11-15T15:54:10;10.80;;;7.20;;
39918;SDS011;25589;51.552;13.424;2022-11-15T15:56:36;11.07;;;7.60;;
39918;SDS011;25589;51.552;13.424;2022-11-15T15:59:01;10.38;;;7.07;;
39918;SDS011;25589;51.552;13.424;2022-11-15T16:01:27;13.80;;;7.90;;
39918;SDS011;25589;51.552;13.424;2022-11-15T16:03:53;13.65;;;8.05;;
39918;SDS011;25589;51.552;13.424;2022-11-15T16:09:16;11.35;;;7.88;;
39918;SDS011;25589;51.552;13.424;2022-11-15T16:11:45;12.75;;;8.15;;
39918;SDS011;25589;51.552;13.424;2022-11-15T16:14:12;12.82;;;8.32;;
39918;SDS011;25589;51.552;13.424;2022-11-15T16:16:37;11.68;;;7.97;;
39918;SDS011;25589;51.552;13.424;2022-11-15T16:19:04;12.25;;;8.25;;
39918;SDS011;25589;51.552;13.424;2022-11-15T16:21:29;10.73;;;7.55;;
39918;SDS011;25589;51.552;13.424;2022-11-15T16:23:55;12.63;;;8.05;;
39918;SDS011;25589;51.552;13.424;2022-11-15T16:26:21;12.95;;;8.13;;
39918;SDS011;25589;51.552;13.424;2022-11-15T16:28:54;25.90;;;18.05;;
39918;SDS011;25589;51.552;13.424;2022-11-15T16:31:20;13.77;;;9.18;;
39918;SDS011;25589;51.552;13.424;2022-11-15T16:33:48;12.38;;;7.95;;
39918;SDS011;25589;51.552;13.424;2022-11-15T16:36:24;13.20;;;8.75;;
39918;SDS011;25589;51.552;13.424;2022-11-15T16:38:51;14.32;;;9.02;;
39918;SDS011;25589;51.552;13.424;2022-11-15T16:41:17;12.25;;;8.60;;
39918;SDS011;25589;51.552;13.424;2022-11-15T16:43:47;15.45;;;9.90;;
39918;SDS011;25589;51.552;13.424;2022-11-15T16:46:16;14.75;;;9.20;;
39918;SDS011;25589;51.552;13.424;2022-11-15T16:48:47;16.65;;;11.77;;
39918;SDS011;25589;51.552;13.424;2022-11-15T16:51:13;26.25;;;16.38;;
39918;SDS011;25589;51.552;13.424;2022-11-15T16:53:40;15.15;;;10.73;;
39918;SDS011;25589;51.552;13.424;2022-11-15T16:56:24;18.58;;;10.30;;
39918;SDS011;25589;51.552;13.424;2022-11-15T16:59:03;17.40;;;9.85;;
39918;SDS011;25589;51.552;13.424;2022-11-15T17:01:30;11.73;;;8.52;;
39918;SDS011;25589;51.552;13.424;2022-11-15T17:03:57;13.65;;;8.65;;
39918;SDS011;25589;51.552;13.424;2022-11-15T17:06:24;21.63;;;17.55;;
39918;SDS011;25589;51.552;13.424;2022-11-15T17:08:50;14.05;;;9.93;;